createdAt,value
2022-09-02T00:01:56.356Z,55.20
2022-09-02T00:04:28.427Z,55.30
2022-09-02T00:06:55.340Z,55.40
2022-09-02T00:09:23.266Z,55.50
2022-09-02T00:11:50.698Z,55.40
2022-09-02T00:14:19.748Z,55.40
2022-09-02T00:16:51.032Z,55.40
2022-09-02T00:19:25.808Z,55.40
2022-09-02T00:21:53.410Z,55.40
2022-09-02T00:24:22.732Z,55.50
2022-09-02T00:26:49.757Z,55.40
2022-09-02T00:29:16.850Z,55.40
2022-09-02T00:31:44.005Z,55.50
2022-09-02T00:34:11.167Z,55.40
2022-09-02T00:36:40.270Z,55.20
2022-09-02T00:39:09.849Z,55.30
2022-09-02T00:41:37.823Z,55.30
2022-09-02T00:44:08.981Z,55.40
2022-09-02T00:46:36.302Z,55.50
2022-09-02T00:49:08.863Z,55.50
2022-09-02T00:51:48.729Z,55.50
2022-09-02T00:54:17.169Z,55.50
2022-09-02T00:56:45.082Z,55.50
2022-09-02T00:59:19.714Z,55.70
2022-09-02T01:01:46.409Z,55.90
2022-09-02T01:04:13.152Z,55.90
2022-09-02T01:06:40.226Z,55.80
2022-09-02T01:09:12.022Z,55.80
2022-09-02T01:11:40.429Z,55.90
2022-09-02T01:14:07.316Z,55.80
2022-09-02T01:16:42.278Z,55.70
2022-09-02T01:19:16.108Z,55.70
2022-09-02T01:21:47.625Z,55.90
2022-09-02T01:24:14.442Z,56.00
2022-09-02T01:26:41.025Z,56.00
2022-09-02T01:29:07.825Z,56.20
2022-09-02T01:31:34.788Z,56.30
2022-09-02T01:34:03.838Z,56.40
2022-09-02T01:36:32.857Z,56.60
2022-09-02T01:38:59.924Z,56.70
2022-09-02T01:41:29.028Z,56.90
2022-09-02T01:43:56.077Z,57.10
2022-09-02T01:46:25.378Z,57.10
2022-09-02T01:48:52.049Z,57.10
2022-09-02T01:51:19.286Z,57.20
2022-09-02T01:53:48.796Z,57.30
2022-09-02T01:56:18.466Z,57.10
2022-09-02T01:58:45.017Z,57.10
2022-09-02T02:01:12.030Z,57.20
2022-09-02T02:03:38.801Z,57.40
2022-09-02T02:06:09.874Z,57.40
2022-09-02T02:08:36.498Z,57.50
2022-09-02T02:11:03.113Z,57.50
2022-09-02T02:13:29.773Z,57.50
2022-09-02T02:15:56.551Z,57.60
2022-09-02T02:18:23.226Z,57.80
2022-09-02T02:20:49.906Z,57.90
2022-09-02T02:23:17.849Z,58.10
2022-09-02T02:25:46.828Z,58.10
2022-09-02T02:28:14.635Z,58.10
2022-09-02T02:30:41.201Z,58.00
2022-09-02T02:33:10.333Z,57.90
2022-09-02T02:35:36.940Z,57.90
2022-09-02T02:38:04.189Z,57.80
2022-09-02T02:40:31.654Z,58.60
2022-09-02T02:43:01.187Z,58.90
2022-09-02T02:45:27.923Z,58.90
2022-09-02T02:47:54.590Z,59.30
2022-09-02T02:50:22.414Z,58.60
2022-09-02T02:52:49.162Z,58.70
2022-09-02T02:55:16.152Z,58.90
2022-09-02T02:57:43.637Z,59.00
2022-09-02T03:00:12.389Z,58.90
2022-09-02T03:02:39.382Z,58.90
2022-09-02T03:05:07.088Z,58.80
2022-09-02T03:07:36.638Z,58.90
2022-09-02T03:10:04.965Z,58.90
2022-09-02T03:12:33.210Z,58.90
2022-09-02T03:14:59.823Z,59.50
2022-09-02T03:17:26.407Z,61.00
2022-09-02T03:19:59.337Z,61.90
2022-09-02T03:22:26.807Z,61.60
2022-09-02T03:24:55.917Z,61.20
2022-09-02T03:27:22.685Z,60.80
2022-09-02T03:29:49.276Z,60.70
2022-09-02T03:32:15.935Z,60.40
2022-09-02T03:34:42.505Z,60.30
2022-09-02T03:37:09.211Z,60.20
2022-09-02T03:39:37.325Z,60.30
2022-09-02T03:42:06.301Z,60.40
2022-09-02T03:44:35.080Z,60.40
2022-09-02T03:47:01.758Z,60.50
2022-09-02T03:49:28.604Z,60.80
2022-09-02T03:51:55.266Z,60.70
2022-09-02T03:54:21.887Z,60.90
2022-09-02T03:56:50.830Z,60.90
2022-09-02T03:59:19.832Z,61.00
2022-09-02T04:01:47.099Z,61.20
2022-09-02T04:04:19.675Z,61.10
2022-09-02T04:06:48.844Z,61.60
2022-09-02T04:09:15.438Z,61.70
2022-09-02T04:11:44.985Z,61.60
2022-09-02T04:14:11.689Z,61.80
2022-09-02T04:17:15.854Z,62.20
2022-09-02T04:20:19.978Z,62.40
2022-09-02T04:22:46.591Z,62.70
2022-09-02T04:25:13.179Z,62.80
2022-09-02T04:27:39.887Z,62.70
2022-09-02T04:30:07.654Z,62.70
2022-09-02T04:32:39.865Z,62.80
2022-09-02T04:35:07.383Z,62.90
2022-09-02T04:37:33.985Z,62.90
2022-09-02T04:40:02.978Z,62.70
2022-09-02T04:42:31.964Z,62.50
2022-09-02T04:44:58.661Z,62.50
2022-09-02T04:47:26.443Z,62.60
2022-09-02T04:49:56.491Z,62.70
2022-09-02T04:52:23.173Z,62.70
2022-09-02T04:54:50.351Z,62.60
2022-09-02T04:57:17.330Z,62.60
2022-09-02T04:59:43.962Z,62.60
2022-09-02T05:02:11.078Z,62.40
2022-09-02T05:04:37.810Z,62.30
2022-09-02T05:07:04.436Z,62.30
2022-09-02T05:09:31.564Z,62.40
2022-09-02T05:11:58.357Z,62.40
2022-09-02T05:14:25.244Z,62.40
2022-09-02T05:16:54.976Z,62.30
2022-09-02T05:19:23.308Z,62.40
2022-09-02T05:21:51.033Z,62.50
2022-09-02T05:24:26.440Z,62.60
2022-09-02T05:26:53.551Z,62.80
2022-09-02T05:29:20.593Z,62.70
2022-09-02T05:31:47.800Z,62.70
2022-09-02T05:34:14.536Z,62.90
2022-09-02T05:36:41.370Z,62.90
2022-09-02T05:39:10.348Z,63.00
2022-09-02T05:41:37.009Z,62.80
2022-09-02T05:44:04.377Z,63.00
2022-09-02T05:46:31.358Z,63.00
2022-09-02T05:49:08.701Z,63.10
2022-09-02T05:51:42.958Z,63.20
2022-09-02T05:54:13.162Z,63.50
2022-09-02T05:56:40.624Z,64.50
2022-09-02T05:59:12.280Z,63.40
2022-09-02T06:01:39.483Z,63.60
2022-09-02T06:04:08.749Z,63.70
2022-09-02T06:06:38.683Z,63.40
2022-09-02T06:09:12.335Z,63.30
2022-09-02T06:11:40.471Z,63.30
2022-09-02T06:14:07.999Z,63.40
2022-09-02T06:16:37.952Z,63.50
2022-09-02T06:19:07.051Z,63.50
2022-09-02T06:21:33.728Z,64.10
2022-09-02T06:24:00.304Z,63.50
2022-09-02T06:26:27.065Z,63.30
2022-09-02T06:28:55.794Z,63.30
2022-09-02T06:31:27.076Z,63.30
2022-09-02T06:34:01.291Z,63.40
2022-09-02T06:36:33.094Z,63.40
2022-09-02T06:39:00.402Z,63.50
2022-09-02T06:41:28.585Z,63.50
2022-09-02T06:43:56.551Z,63.20
2022-09-02T06:46:25.382Z,63.30
2022-09-02T06:48:52.124Z,63.30
2022-09-02T06:51:39.008Z,63.30
2022-09-02T06:54:09.548Z,63.40
2022-09-02T06:56:38.634Z,63.50
2022-09-02T06:59:06.211Z,63.50
2022-09-02T07:01:34.100Z,63.30
2022-09-02T07:04:19.608Z,63.00
2022-09-02T07:06:48.079Z,62.80
2022-09-02T07:09:16.557Z,62.80
2022-09-02T07:11:47.724Z,62.60
2022-09-02T07:14:20.597Z,59.30
2022-09-02T07:16:50.256Z,58.40
2022-09-02T07:19:20.499Z,58.00
2022-09-02T07:21:49.312Z,58.10
2022-09-02T07:24:18.673Z,58.50
2022-09-02T07:26:48.204Z,58.90
2022-09-02T07:29:14.890Z,59.00
2022-09-02T07:31:42.748Z,58.80
2022-09-02T07:34:12.039Z,58.70
2022-09-02T07:36:38.635Z,58.70
2022-09-02T07:39:06.632Z,58.60
2022-09-02T07:41:33.535Z,58.40
2022-09-02T07:44:00.211Z,58.40
2022-09-02T07:46:29.983Z,57.90
2022-09-02T07:48:59.583Z,58.40
2022-09-02T07:51:30.773Z,57.90
2022-09-02T07:53:57.936Z,57.00
2022-09-02T07:56:24.643Z,56.50
2022-09-02T07:58:53.443Z,55.80
2022-09-02T08:01:23.646Z,56.20
2022-09-02T08:03:50.706Z,55.50
2022-09-02T08:06:17.618Z,54.50
2022-09-02T08:08:55.088Z,53.70
2022-09-02T08:11:24.037Z,53.60
2022-09-02T08:13:55.391Z,53.00
2022-09-02T08:16:25.738Z,52.70
2022-09-02T08:18:52.610Z,53.00
2022-09-02T08:21:19.494Z,52.70
2022-09-02T08:23:50.120Z,53.00
2022-09-02T08:26:19.630Z,53.20
2022-09-02T08:28:46.288Z,52.50
2022-09-02T08:31:15.393Z,52.70
2022-09-02T08:33:42.507Z,52.90
2022-09-02T08:36:11.769Z,52.40
2022-09-02T08:38:38.497Z,51.80
2022-09-02T08:41:17.147Z,52.10
2022-09-02T08:43:44.793Z,51.70
2022-09-02T08:46:14.889Z,51.90
2022-09-02T08:49:08.302Z,52.00
2022-09-02T08:51:42.837Z,51.60
2022-09-02T08:54:22.257Z,52.00
2022-09-02T08:56:52.626Z,51.50
2022-09-02T08:59:21.459Z,51.00
2022-09-02T09:01:50.705Z,50.70
2022-09-02T09:04:27.414Z,50.20
2022-09-02T09:06:54.065Z,50.10
2022-09-02T09:09:36.058Z,49.70
2022-09-02T09:12:04.880Z,49.10
2022-09-02T09:14:47.261Z,49.30
2022-09-02T09:17:19.993Z,49.30
2022-09-02T09:19:53.861Z,49.30
2022-09-02T09:22:21.862Z,48.70
2022-09-02T09:24:51.489Z,48.80
2022-09-02T09:27:22.347Z,48.60
2022-09-02T09:29:49.758Z,48.20
2022-09-02T09:32:16.388Z,47.70
2022-09-02T09:34:52.317Z,47.80
2022-09-02T09:37:37.053Z,47.60
2022-09-02T09:40:33.195Z,48.10
2022-09-02T09:43:24.511Z,47.20
2022-09-02T09:45:51.991Z,47.70
2022-09-02T09:48:23.295Z,47.70
2022-09-02T09:50:55.674Z,47.50
2022-09-02T09:53:24.007Z,47.70
2022-09-02T09:55:53.812Z,47.30
2022-09-02T09:58:21.824Z,47.70
2022-09-02T10:00:48.754Z,47.70
2022-09-02T10:03:21.569Z,47.00
2022-09-02T10:05:49.650Z,46.90
2022-09-02T10:08:16.201Z,47.10
2022-09-02T10:10:56.082Z,47.40
2022-09-02T10:13:30.527Z,46.40
2022-09-02T10:16:06.139Z,46.80
2022-09-02T10:18:40.145Z,46.70
2022-09-02T10:21:15.311Z,45.90
2022-09-02T10:23:51.603Z,45.70
2022-09-02T10:29:16.853Z,45.40
2022-09-02T10:31:52.333Z,45.40
2022-09-02T10:34:31.172Z,44.60
2022-09-02T10:37:09.716Z,44.90
2022-09-02T10:39:39.013Z,45.20
2022-09-02T10:42:14.677Z,45.40
2022-09-02T10:44:59.868Z,45.80
2022-09-02T10:47:38.780Z,46.20
2022-09-02T10:50:20.830Z,46.10
2022-09-02T10:52:53.348Z,45.50
2022-09-02T10:55:42.962Z,46.40
2022-09-02T10:58:28.101Z,45.40
2022-09-02T11:00:56.551Z,45.10
2022-09-02T11:03:33.274Z,45.10
2022-09-02T11:06:07.904Z,44.70
2022-09-02T11:08:37.605Z,44.90
2022-09-02T11:11:13.333Z,44.60
2022-09-02T11:13:39.946Z,43.90
2022-09-02T11:16:06.653Z,43.50
2022-09-02T11:18:45.002Z,43.60
2022-09-02T11:21:31.731Z,43.30
2022-09-02T11:23:59.414Z,43.30
2022-09-02T11:26:32.625Z,42.70
2022-09-02T11:29:10.512Z,41.20
2022-09-02T11:32:04.674Z,41.50
2022-09-02T11:34:35.298Z,40.90
2022-09-02T11:37:10.725Z,40.30
2022-09-02T11:40:11.223Z,40.90
2022-09-02T11:42:37.347Z,40.30
2022-09-02T11:45:22.865Z,39.20
2022-09-02T11:48:08.055Z,39.70
2022-09-02T11:50:39.491Z,40.30
2022-09-02T11:53:21.098Z,39.10
2022-09-02T11:55:47.780Z,39.00
2022-09-02T11:58:35.672Z,39.30
2022-09-02T12:01:16.227Z,39.50
2022-09-02T12:04:27.506Z,38.20
2022-09-02T12:06:38.739Z,38.10
2022-09-02T12:09:09.136Z,38.30
2022-09-02T12:11:43.037Z,38.30
2022-09-02T12:14:13.824Z,38.30
2022-09-02T12:16:41.953Z,38.90
2022-09-02T12:19:10.627Z,38.70
2022-09-02T12:21:57.179Z,38.20
2022-09-02T12:24:25.411Z,38.80
2022-09-02T12:26:52.978Z,38.50
2022-09-02T12:29:23.976Z,38.20
2022-09-02T12:31:52.498Z,38.30
2022-09-02T12:34:25.619Z,38.70
2022-09-02T12:36:56.329Z,38.40
2022-09-02T12:39:25.342Z,38.60
2022-09-02T12:41:55.181Z,38.70
2022-09-02T12:44:31.380Z,39.30
2022-09-02T12:46:58.010Z,39.80
2022-09-02T12:49:27.781Z,39.20
2022-09-02T12:51:59.787Z,39.40
2022-09-02T12:54:38.565Z,40.00
2022-09-02T12:57:09.151Z,39.80
2022-09-02T12:59:38.058Z,39.50
2022-09-02T13:02:10.559Z,39.70
2022-09-02T13:04:44.056Z,39.50
2022-09-02T13:07:10.636Z,39.20
2022-09-02T13:09:40.204Z,39.80
2022-09-02T13:12:15.575Z,39.50
2022-09-02T13:14:44.994Z,39.30
2022-09-02T13:17:35.985Z,39.50
2022-09-02T13:20:20.042Z,39.80
2022-09-02T13:22:46.623Z,39.60
2022-09-02T13:25:29.140Z,39.50
2022-09-02T13:27:58.769Z,39.20
2022-09-02T13:30:38.103Z,39.40
2022-09-02T13:33:12.097Z,39.40
2022-09-02T13:35:40.398Z,39.00
2022-09-02T13:40:43.961Z,39.00
2022-09-02T13:43:12.561Z,39.20
2022-09-02T13:45:39.758Z,39.20
2022-09-02T13:50:50.839Z,38.80
2022-09-02T13:53:45.910Z,38.60
2022-09-02T13:56:25.553Z,38.50
2022-09-02T13:58:53.232Z,37.60
2022-09-02T14:01:20.057Z,38.00
2022-09-02T14:03:51.745Z,37.80
2022-09-02T14:06:20.091Z,37.10
2022-09-02T14:08:55.701Z,37.80
2022-09-02T14:11:24.953Z,37.40
2022-09-02T14:13:51.717Z,37.40
2022-09-02T14:16:24.294Z,37.00
2022-09-02T14:19:23.097Z,37.10
2022-09-02T14:21:57.258Z,37.30
2022-09-02T14:24:26.266Z,37.50
2022-09-02T14:26:53.745Z,38.10
2022-09-02T14:29:21.201Z,37.90
2022-09-02T14:32:05.331Z,37.90
2022-09-02T14:34:35.825Z,38.20
2022-09-02T14:37:14.915Z,38.00
2022-09-02T14:40:00.034Z,38.40
2022-09-02T14:42:29.502Z,37.40
2022-09-02T14:44:59.346Z,37.60
2022-09-02T14:47:28.130Z,37.50
2022-09-02T14:49:57.743Z,37.40
2022-09-02T14:52:33.346Z,37.20
2022-09-02T14:55:00.572Z,37.20
2022-09-02T14:57:32.850Z,38.00
2022-09-02T15:00:08.520Z,38.30
2022-09-02T15:02:40.543Z,38.50
2022-09-02T15:05:08.772Z,37.60
2022-09-02T15:07:35.549Z,37.30
2022-09-02T15:10:07.331Z,37.00
2022-09-02T15:12:34.765Z,37.20
2022-09-02T15:15:01.404Z,37.30
2022-09-02T15:17:29.446Z,37.00
2022-09-02T15:19:56.603Z,37.20
2022-09-02T15:22:23.820Z,37.20
2022-09-02T15:24:51.957Z,37.10
2022-09-02T15:27:21.749Z,37.40
2022-09-02T15:29:48.927Z,37.70
2022-09-02T15:32:15.638Z,37.00
2022-09-02T15:34:42.226Z,36.90
2022-09-02T15:37:12.814Z,37.20
2022-09-02T15:39:40.218Z,37.10
2022-09-02T15:42:09.128Z,37.10
2022-09-02T15:44:35.827Z,37.20
2022-09-02T15:47:02.650Z,37.40
2022-09-02T15:49:30.604Z,36.80
2022-09-02T15:51:58.876Z,37.10
2022-09-02T15:54:27.707Z,37.10
2022-09-02T15:56:55.882Z,36.80
2022-09-02T15:59:25.731Z,37.00
2022-09-02T16:01:56.810Z,37.00
2022-09-02T16:04:23.489Z,36.90
2022-09-02T16:06:52.288Z,37.50
2022-09-02T16:09:19.395Z,37.70
2022-09-02T16:11:50.350Z,37.70
2022-09-02T16:14:20.552Z,37.20
2022-09-02T16:16:49.047Z,37.00
2022-09-02T16:19:18.761Z,36.90
2022-09-02T16:21:45.381Z,37.00
2022-09-02T16:24:14.153Z,36.90
2022-09-02T16:26:41.641Z,37.40
2022-09-02T16:29:09.305Z,37.10
2022-09-02T16:31:39.836Z,37.60
2022-09-02T16:34:07.874Z,37.50
2022-09-02T16:36:35.649Z,37.20
2022-09-02T16:39:03.144Z,36.80
2022-09-02T16:41:34.785Z,37.70
2022-09-02T16:44:05.567Z,36.80
2022-09-02T16:46:32.659Z,37.30
2022-09-02T16:48:59.342Z,36.60
2022-09-02T16:51:30.034Z,36.90
2022-09-02T16:53:58.336Z,37.00
2022-09-02T16:56:26.127Z,36.60
2022-09-02T16:58:53.303Z,36.80
2022-09-02T17:01:21.802Z,36.50
2022-09-02T17:03:48.903Z,36.90
2022-09-02T17:06:20.116Z,36.80
2022-09-02T17:08:50.428Z,36.70
2022-09-02T17:11:19.257Z,36.70
2022-09-02T17:13:46.633Z,36.70
2022-09-02T17:16:13.438Z,36.60
2022-09-02T17:18:40.263Z,36.70
2022-09-02T17:21:21.915Z,36.80
2022-09-02T17:23:49.178Z,37.00
2022-09-02T17:26:16.131Z,37.00
2022-09-02T17:28:49.021Z,37.00
2022-09-02T17:31:15.686Z,37.00
2022-09-02T17:33:44.529Z,37.10
2022-09-02T17:36:13.511Z,37.30
2022-09-02T17:38:42.371Z,37.70
2022-09-02T17:41:27.766Z,38.10
2022-09-02T17:43:54.387Z,37.60
2022-09-02T17:46:23.459Z,37.40
2022-09-02T17:49:15.268Z,37.50
2022-09-02T17:51:36.969Z,37.60
2022-09-02T17:54:07.522Z,37.50
2022-09-02T17:56:46.211Z,37.70
2022-09-02T17:59:18.561Z,37.70
2022-09-02T18:02:00.647Z,38.00
2022-09-02T18:04:45.354Z,38.50
2022-09-02T18:07:21.678Z,38.00
2022-09-02T18:09:51.623Z,38.40
2022-09-02T18:12:20.656Z,39.00
2022-09-02T18:14:51.529Z,39.80
2022-09-02T18:17:23.069Z,40.50
2022-09-02T18:19:56.506Z,40.70
2022-09-02T18:22:44.536Z,41.00
2022-09-02T18:25:18.804Z,40.90
2022-09-02T18:28:04.176Z,41.00
2022-09-02T18:30:33.533Z,40.80
2022-09-02T18:33:06.566Z,41.00
2022-09-02T18:35:33.149Z,41.10
2022-09-02T18:38:21.448Z,41.30
2022-09-02T18:40:51.252Z,41.50
2022-09-02T18:43:38.276Z,41.80
2022-09-02T18:46:05.399Z,41.20
2022-09-02T18:48:33.351Z,41.50
2022-09-02T18:51:07.125Z,42.00
2022-09-02T18:53:36.899Z,42.40
2022-09-02T18:56:07.910Z,42.70
2022-09-02T18:58:47.205Z,42.80
2022-09-02T19:01:16.621Z,43.00
2022-09-02T19:03:45.755Z,43.20
2022-09-02T19:06:17.192Z,43.50
2022-09-02T19:08:47.268Z,43.40
2022-09-02T19:11:15.282Z,43.10
2022-09-02T19:13:51.201Z,43.40
2022-09-02T19:16:19.286Z,43.70
2022-09-02T19:18:46.098Z,44.20
2022-09-02T19:21:16.269Z,44.20
2022-09-02T19:23:46.237Z,43.90
2022-09-02T19:26:12.823Z,42.90
2022-09-02T19:28:42.442Z,42.50
2022-09-02T19:31:18.067Z,42.70
2022-09-02T19:33:44.991Z,43.30
2022-09-02T19:36:11.638Z,43.80
2022-09-02T19:38:39.165Z,44.50
2022-09-02T19:41:07.918Z,44.50
2022-09-02T19:43:35.799Z,44.40
2022-09-02T19:46:04.830Z,44.30
2022-09-02T19:48:31.543Z,44.10
2022-09-02T19:51:00.251Z,44.40
2022-09-02T19:53:30.318Z,44.40
2022-09-02T19:55:57.635Z,44.50
2022-09-02T19:58:26.828Z,44.70
2022-09-02T20:00:56.967Z,44.80
2022-09-02T20:03:23.654Z,45.50
2022-09-02T20:05:52.415Z,45.20
2022-09-02T20:08:19.996Z,45.00
2022-09-02T20:10:55.939Z,45.40
2022-09-02T20:13:24.257Z,45.70
2022-09-02T20:15:51.829Z,45.90
2022-09-02T20:18:19.094Z,45.80
2022-09-02T20:20:49.685Z,45.50
2022-09-02T20:23:17.765Z,46.10
2022-09-02T20:25:44.594Z,46.20
2022-09-02T20:28:20.164Z,46.20
2022-09-02T20:30:51.909Z,46.20
2022-09-02T20:33:19.576Z,46.70
2022-09-02T20:35:58.341Z,47.00
2022-09-02T20:38:25.041Z,46.90
2022-09-02T20:41:01.454Z,47.10
2022-09-02T20:43:34.030Z,47.40
2022-09-02T20:46:17.429Z,47.80
2022-09-02T20:48:44.082Z,48.40
2022-09-02T20:51:30.150Z,48.70
2022-09-02T20:54:11.850Z,49.00
2022-09-02T20:56:50.537Z,49.10
2022-09-02T20:59:35.943Z,49.20
2022-09-02T21:02:06.934Z,49.10
2022-09-02T21:04:38.884Z,49.40
2022-09-02T21:07:17.767Z,49.30
2022-09-02T21:09:50.616Z,49.50
2022-09-02T21:12:19.996Z,49.50
2022-09-02T21:14:48.211Z,49.60
2022-09-02T21:17:22.045Z,49.70
2022-09-02T21:20:06.862Z,49.80
2022-09-02T21:22:45.036Z,50.10
2022-09-02T21:25:28.894Z,50.20
2022-09-02T21:27:58.368Z,50.20
2022-09-02T21:30:28.058Z,50.60
2022-09-02T21:32:56.143Z,50.70
2022-09-02T21:35:37.193Z,50.60
2022-09-02T21:38:25.162Z,50.80
2022-09-02T21:41:10.704Z,51.10
2022-09-02T21:43:55.917Z,51.20
2022-09-02T21:46:26.395Z,51.50
2022-09-02T21:49:19.604Z,51.60
2022-09-02T21:51:49.697Z,51.60
2022-09-02T21:54:16.253Z,51.60
2022-09-02T21:56:54.234Z,51.70
2022-09-02T21:59:39.483Z,51.70
2022-09-02T22:02:12.329Z,51.80
2022-09-02T22:04:57.309Z,51.90
2022-09-02T22:07:44.524Z,52.00
2022-09-02T22:10:11.099Z,52.10
2022-09-02T22:12:42.168Z,52.30
2022-09-02T22:15:20.977Z,52.40
2022-09-02T22:17:47.524Z,52.40
2022-09-02T22:20:16.858Z,52.30
2022-09-02T22:22:47.192Z,52.20
2022-09-02T22:25:21.574Z,52.40
2022-09-02T22:27:56.882Z,52.50
2022-09-02T22:30:23.561Z,52.90
2022-09-02T22:32:53.907Z,53.30
2022-09-02T22:35:28.440Z,53.60
2022-09-02T22:37:59.525Z,53.90
2022-09-02T22:40:27.896Z,54.10
2022-09-02T22:42:57.850Z,54.30
2022-09-02T22:45:47.355Z,54.40
2022-09-02T22:48:38.050Z,54.40
2022-09-02T22:51:26.566Z,54.60
2022-09-02T22:53:53.138Z,54.90
2022-09-02T22:56:28.062Z,55.20
2022-09-02T22:59:15.969Z,55.40
2022-09-02T23:01:53.573Z,55.60
2022-09-02T23:04:29.419Z,55.70
2022-09-02T23:07:01.745Z,55.40
2022-09-02T23:09:28.430Z,55.30
2022-09-02T23:12:02.167Z,55.60
2022-09-02T23:14:38.873Z,55.90
2022-09-02T23:17:18.269Z,56.30
2022-09-02T23:19:56.537Z,56.30
2022-09-02T23:22:33.847Z,56.20
2022-09-02T23:25:00.730Z,57.20
2022-09-02T23:27:34.246Z,56.80
2022-09-02T23:30:01.643Z,57.20
2022-09-02T23:32:39.323Z,57.90
2022-09-02T23:35:16.581Z,58.40
2022-09-02T23:37:45.964Z,58.70
2022-09-02T23:40:12.588Z,59.00
2022-09-02T23:42:39.337Z,59.00
2022-09-02T23:45:22.179Z,59.10
2022-09-02T23:48:07.383Z,59.20
2022-09-02T23:50:47.075Z,59.20
2022-09-02T23:53:23.558Z,59.80
2022-09-02T23:56:09.037Z,59.30
2022-09-02T23:58:57.438Z,59.50
